sensor_id;sensor_type;location;lat;lon;timestamp;P1;durP1;ratioP1;P2;durP2;ratioP2
51738;SDS011;37815;52.692;6.226;2023-05-07T00:02:57;4.40;;;3.65;;
51738;SDS011;37815;52.692;6.226;2023-05-07T00:07:57;5.38;;;3.95;;
51738;SDS011;37815;52.692;6.226;2023-05-07T00:12:58;5.43;;;4.00;;
51738;SDS011;37815;52.692;6.226;2023-05-07T00:17:59;6.22;;;3.63;;
51738;SDS011;37815;52.692;6.226;2023-05-07T00:22:59;4.25;;;3.65;;
51738;SDS011;37815;52.692;6.226;2023-05-07T00:28:00;5.85;;;3.97;;
51738;SDS011;37815;52.692;6.226;2023-05-07T00:33:03;4.28;;;3.53;;
51738;SDS011;37815;52.692;6.226;2023-05-07T00:38:04;5.20;;;4.07;;
51738;SDS011;37815;52.692;6.226;2023-05-07T00:43:04;4.80;;;3.55;;
51738;SDS011;37815;52.692;6.226;2023-05-07T00:48:05;4.80;;;3.40;;
51738;SDS011;37815;52.692;6.226;2023-05-07T00:53:06;4.45;;;3.58;;
51738;SDS011;37815;52.692;6.226;2023-05-07T00:58:07;5.45;;;3.70;;
51738;SDS011;37815;52.692;6.226;2023-05-07T01:03:08;4.10;;;3.40;;
51738;SDS011;37815;52.692;6.226;2023-05-07T01:08:09;4.53;;;3.63;;
51738;SDS011;37815;52.692;6.226;2023-05-07T01:13:12;4.00;;;3.60;;
51738;SDS011;37815;52.692;6.226;2023-05-07T01:18:14;5.28;;;3.80;;
51738;SDS011;37815;52.692;6.226;2023-05-07T01:23:15;4.43;;;3.72;;
51738;SDS011;37815;52.692;6.226;2023-05-07T01:28:16;4.78;;;3.80;;
51738;SDS011;37815;52.692;6.226;2023-05-07T01:33:18;5.10;;;3.67;;
51738;SDS011;37815;52.692;6.226;2023-05-07T01:38:24;5.07;;;4.05;;
51738;SDS011;37815;52.692;6.226;2023-05-07T01:43:25;5.95;;;4.13;;
51738;SDS011;37815;52.692;6.226;2023-05-07T01:48:26;5.22;;;4.20;;
51738;SDS011;37815;52.692;6.226;2023-05-07T01:53:27;5.57;;;4.47;;
51738;SDS011;37815;52.692;6.226;2023-05-07T01:58:28;7.43;;;4.30;;
51738;SDS011;37815;52.692;6.226;2023-05-07T02:03:29;6.03;;;4.32;;
51738;SDS011;37815;52.692;6.226;2023-05-07T02:08:29;6.85;;;4.18;;
51738;SDS011;37815;52.692;6.226;2023-05-07T02:13:31;6.25;;;4.15;;
51738;SDS011;37815;52.692;6.226;2023-05-07T02:18:34;6.22;;;4.00;;
51738;SDS011;37815;52.692;6.226;2023-05-07T02:23:35;5.65;;;4.40;;
51738;SDS011;37815;52.692;6.226;2023-05-07T02:28:36;5.47;;;4.35;;
51738;SDS011;37815;52.692;6.226;2023-05-07T02:33:37;6.00;;;4.28;;
51738;SDS011;37815;52.692;6.226;2023-05-07T02:38:37;4.63;;;3.70;;
51738;SDS011;37815;52.692;6.226;2023-05-07T02:43:38;5.63;;;4.00;;
51738;SDS011;37815;52.692;6.226;2023-05-07T02:48:40;5.32;;;4.18;;
51738;SDS011;37815;52.692;6.226;2023-05-07T02:53:41;6.30;;;4.40;;
51738;SDS011;37815;52.692;6.226;2023-05-07T02:58:41;7.53;;;4.50;;
51738;SDS011;37815;52.692;6.226;2023-05-07T03:03:42;6.22;;;4.63;;
51738;SDS011;37815;52.692;6.226;2023-05-07T03:08:44;6.40;;;4.15;;
51738;SDS011;37815;52.692;6.226;2023-05-07T03:13:44;6.82;;;5.03;;
51738;SDS011;37815;52.692;6.226;2023-05-07T03:18:45;5.97;;;4.40;;
51738;SDS011;37815;52.692;6.226;2023-05-07T03:23:46;6.07;;;4.45;;
51738;SDS011;37815;52.692;6.226;2023-05-07T03:28:46;5.82;;;4.32;;
51738;SDS011;37815;52.692;6.226;2023-05-07T03:33:52;6.55;;;4.70;;
51738;SDS011;37815;52.692;6.226;2023-05-07T03:38:53;7.22;;;4.88;;
51738;SDS011;37815;52.692;6.226;2023-05-07T03:43:54;6.85;;;4.63;;
51738;SDS011;37815;52.692;6.226;2023-05-07T03:48:54;6.15;;;4.43;;
51738;SDS011;37815;52.692;6.226;2023-05-07T03:53:55;7.85;;;5.15;;
51738;SDS011;37815;52.692;6.226;2023-05-07T03:58:57;6.30;;;4.95;;
51738;SDS011;37815;52.692;6.226;2023-05-07T04:03:57;8.10;;;5.57;;
51738;SDS011;37815;52.692;6.226;2023-05-07T04:08:58;8.60;;;4.72;;
51738;SDS011;37815;52.692;6.226;2023-05-07T04:13:59;7.82;;;5.00;;
51738;SDS011;37815;52.692;6.226;2023-05-07T04:19:00;7.32;;;5.03;;
51738;SDS011;37815;52.692;6.226;2023-05-07T04:24:00;7.93;;;5.28;;
51738;SDS011;37815;52.692;6.226;2023-05-07T04:29:02;7.82;;;5.25;;
51738;SDS011;37815;52.692;6.226;2023-05-07T04:34:03;7.85;;;5.35;;
51738;SDS011;37815;52.692;6.226;2023-05-07T04:39:04;8.35;;;4.80;;
51738;SDS011;37815;52.692;6.226;2023-05-07T04:44:04;8.43;;;5.22;;
51738;SDS011;37815;52.692;6.226;2023-05-07T04:49:06;8.63;;;5.57;;
51738;SDS011;37815;52.692;6.226;2023-05-07T04:54:07;7.80;;;5.65;;
51738;SDS011;37815;52.692;6.226;2023-05-07T04:59:07;8.05;;;5.47;;
51738;SDS011;37815;52.692;6.226;2023-05-07T05:04:08;10.43;;;6.40;;
51738;SDS011;37815;52.692;6.226;2023-05-07T05:09:09;8.57;;;5.90;;
51738;SDS011;37815;52.692;6.226;2023-05-07T05:14:09;9.80;;;6.03;;
51738;SDS011;37815;52.692;6.226;2023-05-07T05:19:11;10.95;;;6.80;;
51738;SDS011;37815;52.692;6.226;2023-05-07T05:24:12;11.20;;;6.40;;
51738;SDS011;37815;52.692;6.226;2023-05-07T05:29:12;9.35;;;6.25;;
51738;SDS011;37815;52.692;6.226;2023-05-07T05:34:13;9.07;;;5.78;;
51738;SDS011;37815;52.692;6.226;2023-05-07T05:39:14;10.02;;;6.40;;
51738;SDS011;37815;52.692;6.226;2023-05-07T05:44:14;8.43;;;5.95;;
51738;SDS011;37815;52.692;6.226;2023-05-07T05:49:15;11.20;;;6.90;;
51738;SDS011;37815;52.692;6.226;2023-05-07T05:54:16;9.88;;;6.70;;
51738;SDS011;37815;52.692;6.226;2023-05-07T05:59:16;11.27;;;6.60;;
51738;SDS011;37815;52.692;6.226;2023-05-07T06:04:17;11.77;;;7.00;;
51738;SDS011;37815;52.692;6.226;2023-05-07T06:09:17;10.73;;;6.88;;
51738;SDS011;37815;52.692;6.226;2023-05-07T06:14:18;10.38;;;6.45;;
51738;SDS011;37815;52.692;6.226;2023-05-07T06:19:19;9.93;;;6.82;;
51738;SDS011;37815;52.692;6.226;2023-05-07T06:24:24;10.50;;;6.72;;
51738;SDS011;37815;52.692;6.226;2023-05-07T06:29:24;12.18;;;6.63;;
51738;SDS011;37815;52.692;6.226;2023-05-07T06:34:30;11.77;;;7.18;;
51738;SDS011;37815;52.692;6.226;2023-05-07T06:39:30;10.60;;;6.80;;
51738;SDS011;37815;52.692;6.226;2023-05-07T06:44:31;12.40;;;7.10;;
51738;SDS011;37815;52.692;6.226;2023-05-07T06:49:32;10.57;;;6.80;;
51738;SDS011;37815;52.692;6.226;2023-05-07T06:54:33;12.32;;;7.47;;
51738;SDS011;37815;52.692;6.226;2023-05-07T06:59:33;10.68;;;6.90;;
51738;SDS011;37815;52.692;6.226;2023-05-07T07:04:34;10.65;;;7.43;;
51738;SDS011;37815;52.692;6.226;2023-05-07T07:09:35;10.90;;;6.97;;
51738;SDS011;37815;52.692;6.226;2023-05-07T07:14:35;10.65;;;6.85;;
51738;SDS011;37815;52.692;6.226;2023-05-07T07:19:36;11.00;;;6.65;;
51738;SDS011;37815;52.692;6.226;2023-05-07T07:24:37;12.23;;;7.97;;
51738;SDS011;37815;52.692;6.226;2023-05-07T07:29:38;12.20;;;7.30;;
51738;SDS011;37815;52.692;6.226;2023-05-07T07:34:38;10.85;;;6.90;;
51738;SDS011;37815;52.692;6.226;2023-05-07T07:39:39;11.70;;;7.68;;
51738;SDS011;37815;52.692;6.226;2023-05-07T07:44:41;9.95;;;6.53;;
51738;SDS011;37815;52.692;6.226;2023-05-07T07:49:41;11.02;;;7.47;;
51738;SDS011;37815;52.692;6.226;2023-05-07T07:54:42;12.82;;;7.80;;
51738;SDS011;37815;52.692;6.226;2023-05-07T07:59:43;11.85;;;7.60;;
51738;SDS011;37815;52.692;6.226;2023-05-07T08:04:43;10.95;;;7.32;;
51738;SDS011;37815;52.692;6.226;2023-05-07T08:09:44;11.48;;;7.50;;
51738;SDS011;37815;52.692;6.226;2023-05-07T08:14:45;10.73;;;6.78;;
51738;SDS011;37815;52.692;6.226;2023-05-07T08:19:45;11.27;;;7.00;;
51738;SDS011;37815;52.692;6.226;2023-05-07T08:24:46;11.13;;;6.90;;
51738;SDS011;37815;52.692;6.226;2023-05-07T08:29:46;11.85;;;7.78;;
51738;SDS011;37815;52.692;6.226;2023-05-07T08:34:48;12.85;;;7.03;;
51738;SDS011;37815;52.692;6.226;2023-05-07T08:39:48;10.93;;;7.05;;
51738;SDS011;37815;52.692;6.226;2023-05-07T08:44:49;14.82;;;8.18;;
51738;SDS011;37815;52.692;6.226;2023-05-07T08:49:54;11.68;;;7.82;;
51738;SDS011;37815;52.692;6.226;2023-05-07T08:54:55;12.25;;;7.55;;
51738;SDS011;37815;52.692;6.226;2023-05-07T08:59:56;12.52;;;7.60;;
51738;SDS011;37815;52.692;6.226;2023-05-07T09:04:57;11.82;;;7.13;;
51738;SDS011;37815;52.692;6.226;2023-05-07T09:09:57;10.88;;;7.20;;
51738;SDS011;37815;52.692;6.226;2023-05-07T09:14:59;12.15;;;7.32;;
51738;SDS011;37815;52.692;6.226;2023-05-07T09:20:03;11.65;;;7.80;;
51738;SDS011;37815;52.692;6.226;2023-05-07T09:25:06;12.75;;;7.00;;
51738;SDS011;37815;52.692;6.226;2023-05-07T09:30:07;11.45;;;7.28;;
51738;SDS011;37815;52.692;6.226;2023-05-07T09:35:14;13.48;;;8.18;;
51738;SDS011;37815;52.692;6.226;2023-05-07T09:40:21;10.90;;;7.15;;
51738;SDS011;37815;52.692;6.226;2023-05-07T09:45:26;13.82;;;7.95;;
51738;SDS011;37815;52.692;6.226;2023-05-07T09:50:29;12.18;;;7.90;;
51738;SDS011;37815;52.692;6.226;2023-05-07T09:55:32;13.10;;;7.78;;
51738;SDS011;37815;52.692;6.226;2023-05-07T10:00:33;11.32;;;7.38;;
51738;SDS011;37815;52.692;6.226;2023-05-07T10:05:33;12.77;;;7.88;;
51738;SDS011;37815;52.692;6.226;2023-05-07T10:10:35;11.90;;;8.43;;
51738;SDS011;37815;52.692;6.226;2023-05-07T10:15:37;13.27;;;7.70;;
51738;SDS011;37815;52.692;6.226;2023-05-07T10:20:38;13.32;;;7.82;;
51738;SDS011;37815;52.692;6.226;2023-05-07T10:25:39;13.07;;;7.75;;
51738;SDS011;37815;52.692;6.226;2023-05-07T10:35:57;13.38;;;7.57;;
51738;SDS011;37815;52.692;6.226;2023-05-07T10:41:00;10.88;;;7.80;;
51738;SDS011;37815;52.692;6.226;2023-05-07T10:51:19;12.10;;;7.95;;
51738;SDS011;37815;52.692;6.226;2023-05-07T11:12:08;15.70;;;8.43;;
51738;SDS011;37815;52.692;6.226;2023-05-07T11:17:09;12.82;;;8.25;;
51738;SDS011;37815;52.692;6.226;2023-05-07T11:27:37;14.52;;;9.38;;
51738;SDS011;37815;52.692;6.226;2023-05-07T11:32:37;14.00;;;8.38;;
51738;SDS011;37815;52.692;6.226;2023-05-07T11:37:38;14.07;;;9.15;;
51738;SDS011;37815;52.692;6.226;2023-05-07T11:42:39;14.98;;;9.32;;
51738;SDS011;37815;52.692;6.226;2023-05-07T11:47:43;13.55;;;8.13;;
51738;SDS011;37815;52.692;6.226;2023-05-07T11:52:50;15.07;;;9.10;;
51738;SDS011;37815;52.692;6.226;2023-05-07T11:57:52;14.63;;;9.27;;
51738;SDS011;37815;52.692;6.226;2023-05-07T12:02:52;16.58;;;9.00;;
51738;SDS011;37815;52.692;6.226;2023-05-07T12:07:55;13.20;;;8.75;;
51738;SDS011;37815;52.692;6.226;2023-05-07T12:12:57;16.02;;;9.43;;
51738;SDS011;37815;52.692;6.226;2023-05-07T12:17:57;14.95;;;8.82;;
51738;SDS011;37815;52.692;6.226;2023-05-07T12:22:58;15.93;;;8.50;;
51738;SDS011;37815;52.692;6.226;2023-05-07T12:28:00;13.02;;;8.32;;
51738;SDS011;37815;52.692;6.226;2023-05-07T12:33:01;14.60;;;9.10;;
51738;SDS011;37815;52.692;6.226;2023-05-07T12:38:02;14.88;;;9.23;;
51738;SDS011;37815;52.692;6.226;2023-05-07T12:43:04;16.63;;;9.70;;
51738;SDS011;37815;52.692;6.226;2023-05-07T12:48:05;11.70;;;8.30;;
51738;SDS011;37815;52.692;6.226;2023-05-07T12:53:06;12.05;;;8.25;;
51738;SDS011;37815;52.692;6.226;2023-05-07T12:58:14;12.68;;;8.23;;
51738;SDS011;37815;52.692;6.226;2023-05-07T13:03:28;14.73;;;8.18;;
51738;SDS011;37815;52.692;6.226;2023-05-07T13:08:37;13.30;;;7.70;;
51738;SDS011;37815;52.692;6.226;2023-05-07T13:13:40;14.18;;;8.77;;
51738;SDS011;37815;52.692;6.226;2023-05-07T13:18:41;11.75;;;7.93;;
51738;SDS011;37815;52.692;6.226;2023-05-07T13:23:46;12.02;;;7.80;;
51738;SDS011;37815;52.692;6.226;2023-05-07T13:28:47;12.57;;;8.25;;
51738;SDS011;37815;52.692;6.226;2023-05-07T13:33:48;14.30;;;8.55;;
51738;SDS011;37815;52.692;6.226;2023-05-07T13:38:50;11.77;;;7.75;;
51738;SDS011;37815;52.692;6.226;2023-05-07T13:43:51;12.90;;;8.55;;
51738;SDS011;37815;52.692;6.226;2023-05-07T13:48:52;10.93;;;7.60;;
51738;SDS011;37815;52.692;6.226;2023-05-07T13:53:52;12.30;;;8.05;;
51738;SDS011;37815;52.692;6.226;2023-05-07T13:58:54;9.88;;;6.97;;
51738;SDS011;37815;52.692;6.226;2023-05-07T14:03:55;10.00;;;7.75;;
51738;SDS011;37815;52.692;6.226;2023-05-07T14:08:57;11.05;;;7.43;;
51738;SDS011;37815;52.692;6.226;2023-05-07T14:13:58;10.13;;;6.97;;
51738;SDS011;37815;52.692;6.226;2023-05-07T14:18:58;12.63;;;7.75;;
51738;SDS011;37815;52.692;6.226;2023-05-07T14:23:59;12.85;;;8.70;;
51738;SDS011;37815;52.692;6.226;2023-05-07T14:29:00;10.93;;;7.68;;
51738;SDS011;37815;52.692;6.226;2023-05-07T14:34:01;14.23;;;8.20;;
51738;SDS011;37815;52.692;6.226;2023-05-07T14:39:02;12.18;;;7.50;;
51738;SDS011;37815;52.692;6.226;2023-05-07T14:44:02;10.38;;;6.80;;
51738;SDS011;37815;52.692;6.226;2023-05-07T14:49:04;11.45;;;7.88;;
51738;SDS011;37815;52.692;6.226;2023-05-07T14:54:04;9.90;;;6.90;;
51738;SDS011;37815;52.692;6.226;2023-05-07T14:59:05;8.60;;;6.10;;
51738;SDS011;37815;52.692;6.226;2023-05-07T15:04:06;9.10;;;6.40;;
51738;SDS011;37815;52.692;6.226;2023-05-07T15:09:07;11.13;;;6.30;;
51738;SDS011;37815;52.692;6.226;2023-05-07T15:14:08;9.57;;;6.60;;
51738;SDS011;37815;52.692;6.226;2023-05-07T15:19:09;8.98;;;6.13;;
51738;SDS011;37815;52.692;6.226;2023-05-07T15:24:10;13.32;;;6.78;;
51738;SDS011;37815;52.692;6.226;2023-05-07T15:29:10;9.63;;;6.38;;
51738;SDS011;37815;52.692;6.226;2023-05-07T15:34:14;8.35;;;5.60;;
51738;SDS011;37815;52.692;6.226;2023-05-07T15:39:15;9.63;;;6.47;;
51738;SDS011;37815;52.692;6.226;2023-05-07T15:44:16;10.45;;;6.60;;
51738;SDS011;37815;52.692;6.226;2023-05-07T15:49:16;9.88;;;6.50;;
51738;SDS011;37815;52.692;6.226;2023-05-07T15:54:17;9.80;;;6.70;;
51738;SDS011;37815;52.692;6.226;2023-05-07T15:59:19;8.98;;;6.30;;
51738;SDS011;37815;52.692;6.226;2023-05-07T16:04:21;9.13;;;6.60;;
51738;SDS011;37815;52.692;6.226;2023-05-07T16:09:22;9.30;;;6.63;;
51738;SDS011;37815;52.692;6.226;2023-05-07T16:14:24;12.50;;;8.30;;
51738;SDS011;37815;52.692;6.226;2023-05-07T16:19:25;10.63;;;7.50;;
51738;SDS011;37815;52.692;6.226;2023-05-07T16:24:26;11.93;;;7.80;;
51738;SDS011;37815;52.692;6.226;2023-05-07T16:29:26;11.35;;;7.55;;
51738;SDS011;37815;52.692;6.226;2023-05-07T16:34:27;12.65;;;7.20;;
51738;SDS011;37815;52.692;6.226;2023-05-07T16:39:27;9.23;;;6.93;;
51738;SDS011;37815;52.692;6.226;2023-05-07T16:44:28;8.90;;;6.45;;
51738;SDS011;37815;52.692;6.226;2023-05-07T16:49:28;8.95;;;6.53;;
51738;SDS011;37815;52.692;6.226;2023-05-07T16:54:29;7.45;;;5.82;;
51738;SDS011;37815;52.692;6.226;2023-05-07T16:59:30;8.13;;;6.28;;
51738;SDS011;37815;52.692;6.226;2023-05-07T17:04:32;7.65;;;5.57;;
51738;SDS011;37815;52.692;6.226;2023-05-07T17:09:32;8.90;;;5.80;;
51738;SDS011;37815;52.692;6.226;2023-05-07T17:14:33;9.70;;;6.22;;
51738;SDS011;37815;52.692;6.226;2023-05-07T17:19:35;8.55;;;5.95;;
51738;SDS011;37815;52.692;6.226;2023-05-07T17:24:37;8.32;;;6.18;;
51738;SDS011;37815;52.692;6.226;2023-05-07T17:29:39;7.60;;;6.00;;
51738;SDS011;37815;52.692;6.226;2023-05-07T17:34:39;7.88;;;5.90;;
51738;SDS011;37815;52.692;6.226;2023-05-07T17:39:40;8.57;;;5.75;;
51738;SDS011;37815;52.692;6.226;2023-05-07T17:44:41;8.52;;;5.82;;
51738;SDS011;37815;52.692;6.226;2023-05-07T17:49:41;8.75;;;5.82;;
51738;SDS011;37815;52.692;6.226;2023-05-07T17:54:42;7.30;;;5.22;;
51738;SDS011;37815;52.692;6.226;2023-05-07T17:59:42;6.82;;;4.97;;
51738;SDS011;37815;52.692;6.226;2023-05-07T18:04:43;7.20;;;5.00;;
51738;SDS011;37815;52.692;6.226;2023-05-07T18:09:56;7.15;;;5.00;;
51738;SDS011;37815;52.692;6.226;2023-05-07T18:14:56;5.95;;;4.90;;
51738;SDS011;37815;52.692;6.226;2023-05-07T18:19:57;7.85;;;5.32;;
51738;SDS011;37815;52.692;6.226;2023-05-07T18:24:58;5.90;;;4.72;;
51738;SDS011;37815;52.692;6.226;2023-05-07T18:29:59;7.85;;;5.45;;
51738;SDS011;37815;52.692;6.226;2023-05-07T18:35:00;5.80;;;4.68;;
51738;SDS011;37815;52.692;6.226;2023-05-07T18:40:01;6.07;;;4.93;;
51738;SDS011;37815;52.692;6.226;2023-05-07T18:45:03;6.88;;;5.30;;
51738;SDS011;37815;52.692;6.226;2023-05-07T18:50:04;5.95;;;4.63;;
51738;SDS011;37815;52.692;6.226;2023-05-07T18:55:05;5.63;;;4.65;;
51738;SDS011;37815;52.692;6.226;2023-05-07T19:00:06;5.15;;;4.47;;
51738;SDS011;37815;52.692;6.226;2023-05-07T19:05:08;6.00;;;4.63;;
51738;SDS011;37815;52.692;6.226;2023-05-07T19:10:08;6.75;;;5.15;;
51738;SDS011;37815;52.692;6.226;2023-05-07T19:15:09;5.68;;;4.45;;
51738;SDS011;37815;52.692;6.226;2023-05-07T19:20:10;5.05;;;4.20;;
51738;SDS011;37815;52.692;6.226;2023-05-07T19:25:12;12.98;;;8.70;;
51738;SDS011;37815;52.692;6.226;2023-05-07T19:30:12;13.38;;;8.95;;
51738;SDS011;37815;52.692;6.226;2023-05-07T19:35:13;12.20;;;7.78;;
51738;SDS011;37815;52.692;6.226;2023-05-07T19:40:14;12.05;;;7.90;;
51738;SDS011;37815;52.692;6.226;2023-05-07T19:45:15;12.05;;;8.52;;
51738;SDS011;37815;52.692;6.226;2023-05-07T19:50:16;12.85;;;8.65;;
51738;SDS011;37815;52.692;6.226;2023-05-07T19:55:16;10.77;;;7.75;;
51738;SDS011;37815;52.692;6.226;2023-05-07T20:00:17;10.82;;;7.65;;
51738;SDS011;37815;52.692;6.226;2023-05-07T20:05:20;11.13;;;7.65;;
51738;SDS011;37815;52.692;6.226;2023-05-07T20:10:20;11.20;;;7.13;;
51738;SDS011;37815;52.692;6.226;2023-05-07T20:15:21;8.85;;;6.43;;
51738;SDS011;37815;52.692;6.226;2023-05-07T20:20:22;8.93;;;6.90;;
51738;SDS011;37815;52.692;6.226;2023-05-07T20:25:23;10.38;;;6.60;;
51738;SDS011;37815;52.692;6.226;2023-05-07T20:30:28;12.57;;;8.40;;
51738;SDS011;37815;52.692;6.226;2023-05-07T20:35:29;16.05;;;7.50;;
51738;SDS011;37815;52.692;6.226;2023-05-07T20:40:31;13.18;;;7.60;;
51738;SDS011;37815;52.692;6.226;2023-05-07T20:45:33;9.95;;;7.22;;
51738;SDS011;37815;52.692;6.226;2023-05-07T20:50:34;10.73;;;7.40;;
51738;SDS011;37815;52.692;6.226;2023-05-07T20:55:34;10.77;;;7.03;;
51738;SDS011;37815;52.692;6.226;2023-05-07T21:00:35;10.52;;;7.13;;
51738;SDS011;37815;52.692;6.226;2023-05-07T21:05:38;9.32;;;6.97;;
51738;SDS011;37815;52.692;6.226;2023-05-07T21:10:38;10.02;;;6.82;;
51738;SDS011;37815;52.692;6.226;2023-05-07T21:15:42;11.00;;;7.40;;
51738;SDS011;37815;52.692;6.226;2023-05-07T21:20:43;12.05;;;7.88;;
51738;SDS011;37815;52.692;6.226;2023-05-07T21:25:43;9.82;;;6.90;;
51738;SDS011;37815;52.692;6.226;2023-05-07T21:30:46;8.23;;;6.45;;
51738;SDS011;37815;52.692;6.226;2023-05-07T21:35:48;13.20;;;7.10;;
51738;SDS011;37815;52.692;6.226;2023-05-07T21:40:48;9.43;;;6.55;;
51738;SDS011;37815;52.692;6.226;2023-05-07T21:45:49;9.00;;;6.72;;
51738;SDS011;37815;52.692;6.226;2023-05-07T21:50:59;9.93;;;6.43;;
51738;SDS011;37815;52.692;6.226;2023-05-07T21:56:01;8.23;;;6.20;;
51738;SDS011;37815;52.692;6.226;2023-05-07T22:01:03;8.90;;;6.82;;
51738;SDS011;37815;52.692;6.226;2023-05-07T22:06:04;9.90;;;6.13;;
51738;SDS011;37815;52.692;6.226;2023-05-07T22:11:05;9.40;;;6.88;;
51738;SDS011;37815;52.692;6.226;2023-05-07T22:16:06;9.88;;;6.47;;
51738;SDS011;37815;52.692;6.226;2023-05-07T22:21:06;10.40;;;6.25;;
51738;SDS011;37815;52.692;6.226;2023-05-07T22:26:10;8.10;;;6.53;;
51738;SDS011;37815;52.692;6.226;2023-05-07T22:31:12;10.63;;;6.65;;
51738;SDS011;37815;52.692;6.226;2023-05-07T22:36:12;8.80;;;6.60;;
51738;SDS011;37815;52.692;6.226;2023-05-07T22:41:13;9.10;;;6.63;;
51738;SDS011;37815;52.692;6.226;2023-05-07T22:46:13;9.02;;;6.78;;
51738;SDS011;37815;52.692;6.226;2023-05-07T22:51:14;7.22;;;5.75;;
51738;SDS011;37815;52.692;6.226;2023-05-07T22:56:15;9.20;;;6.53;;
51738;SDS011;37815;52.692;6.226;2023-05-07T23:01:16;8.25;;;6.53;;
51738;SDS011;37815;52.692;6.226;2023-05-07T23:06:17;9.68;;;6.50;;
51738;SDS011;37815;52.692;6.226;2023-05-07T23:11:18;10.63;;;6.68;;
51738;SDS011;37815;52.692;6.226;2023-05-07T23:16:18;10.60;;;6.05;;
51738;SDS011;37815;52.692;6.226;2023-05-07T23:21:19;10.32;;;7.40;;
51738;SDS011;37815;52.692;6.226;2023-05-07T23:26:20;10.27;;;6.82;;
51738;SDS011;37815;52.692;6.226;2023-05-07T23:31:20;9.95;;;7.20;;
51738;SDS011;37815;52.692;6.226;2023-05-07T23:36:21;12.88;;;7.82;;
51738;SDS011;37815;52.692;6.226;2023-05-07T23:41:22;10.35;;;6.57;;
51738;SDS011;37815;52.692;6.226;2023-05-07T23:46:22;9.10;;;7.15;;
51738;SDS011;37815;52.692;6.226;2023-05-07T23:51:23;12.05;;;6.70;;
51738;SDS011;37815;52.692;6.226;2023-05-07T23:56:24;10.02;;;6.50;;
